createdAt,value
2019-02-28T00:00:12.690Z,8.26
2019-02-28T00:01:12.859Z,8.15
2019-02-28T00:02:12.661Z,8.16
2019-02-28T00:03:12.912Z,8.10
2019-02-28T00:04:12.642Z,8.19
2019-02-28T00:05:12.846Z,8.18
2019-02-28T00:06:12.863Z,8.20
2019-02-28T00:07:17.405Z,8.26
2019-02-28T00:08:12.604Z,8.19
2019-02-28T00:09:12.700Z,8.16
2019-02-28T00:10:13.178Z,8.24
2019-02-28T00:11:12.742Z,8.24
2019-02-28T00:12:13.638Z,8.26
2019-02-28T00:13:13.163Z,8.18
2019-02-28T00:14:13.205Z,8.20
2019-02-28T00:15:12.586Z,8.16
2019-02-28T00:16:12.522Z,8.16
2019-02-28T00:17:12.337Z,8.27
2019-02-28T00:18:15.331Z,8.20
2019-02-28T00:19:25.118Z,8.13
2019-02-28T00:21:06.946Z,8.13
2019-02-28T00:22:05.242Z,8.19
2019-02-28T00:24:04.182Z,8.19
2019-02-28T00:25:04.372Z,8.16
2019-02-28T00:26:03.699Z,8.16
2019-02-28T00:27:04.278Z,8.05
2019-02-28T00:28:08.189Z,8.09
2019-02-28T00:29:03.560Z,8.10
2019-02-28T00:30:06.073Z,8.10
2019-02-28T00:31:03.537Z,8.16
2019-02-28T00:32:04.298Z,8.18
2019-02-28T00:33:05.129Z,8.13
2019-02-28T00:34:05.459Z,8.10
2019-02-28T00:35:03.503Z,8.20
2019-02-28T00:36:04.292Z,8.12
2019-02-28T00:37:03.723Z,8.16
2019-02-28T00:38:03.472Z,8.24
2019-02-28T00:39:04.063Z,8.26
2019-02-28T00:41:10.350Z,8.13
2019-02-28T00:42:04.346Z,8.19
2019-02-28T00:43:03.521Z,8.23
2019-02-28T00:44:04.506Z,8.26
2019-02-28T00:45:03.746Z,8.12
2019-02-28T00:46:03.400Z,8.20
2019-02-28T00:47:03.433Z,8.19
2019-02-28T00:48:03.324Z,8.20
2019-02-28T00:49:03.301Z,8.28
2019-02-28T00:50:03.340Z,8.15
2019-02-28T00:51:04.791Z,8.19
2019-02-28T00:52:03.114Z,8.26
2019-02-28T00:53:06.406Z,8.20
2019-02-28T00:54:08.551Z,8.15
2019-02-28T00:55:03.777Z,8.16
2019-02-28T00:56:03.152Z,8.18
2019-02-28T00:57:03.069Z,8.28
2019-02-28T00:58:07.891Z,8.23
2019-02-28T00:59:09.905Z,8.28
2019-02-28T01:00:05.547Z,8.16
2019-02-28T01:01:03.240Z,8.26
2019-02-28T01:02:05.675Z,8.19
2019-02-28T01:03:07.779Z,8.13
2019-02-28T01:04:02.956Z,8.20
2019-02-28T01:05:23.990Z,8.15
2019-02-28T01:06:03.036Z,8.19
2019-02-28T01:07:04.682Z,8.15
2019-02-28T01:08:02.859Z,8.16
2019-02-28T01:09:03.123Z,8.13
2019-02-28T01:10:04.510Z,8.16
2019-02-28T01:11:10.330Z,8.23
2019-02-28T01:12:02.850Z,8.19
2019-02-28T01:13:02.874Z,8.13
2019-02-28T01:14:03.157Z,8.18
2019-02-28T01:18:40.559Z,8.09
2019-02-28T01:19:45.308Z,8.06
2019-02-28T01:20:40.623Z,8.06
2019-02-28T01:21:42.140Z,8.03
2019-02-28T01:22:40.525Z,8.06
2019-02-28T01:25:03.090Z,8.09
2019-02-28T01:26:02.872Z,7.98
2019-02-28T01:27:13.853Z,7.97
2019-02-28T01:28:02.823Z,8.03
2019-02-28T01:29:03.410Z,8.09
2019-02-28T01:30:02.902Z,8.08
2019-02-28T01:31:02.823Z,8.06
2019-02-28T01:32:02.730Z,7.95
2019-02-28T01:33:02.789Z,8.01
2019-02-28T01:34:02.738Z,8.06
2019-02-28T01:35:06.818Z,8.09
2019-02-28T01:36:02.725Z,8.00
2019-02-28T01:37:03.544Z,7.97
2019-02-28T01:38:02.861Z,7.90
2019-02-28T01:39:04.374Z,8.03
2019-02-28T01:40:04.336Z,8.03
2019-02-28T01:42:24.727Z,8.01
2019-02-28T01:43:28.396Z,7.95
2019-02-28T01:44:24.615Z,8.06
2019-02-28T01:45:23.096Z,7.95
2019-02-28T01:46:24.689Z,7.98
2019-02-28T01:47:23.030Z,8.06
2019-02-28T01:48:23.733Z,8.09
2019-02-28T01:49:25.951Z,8.00
2019-02-28T01:50:23.755Z,8.05
2019-02-28T01:51:23.581Z,8.03
2019-02-28T01:52:22.962Z,7.90
2019-02-28T01:53:29.631Z,7.91
2019-02-28T01:54:28.486Z,8.00
2019-02-28T01:55:22.988Z,7.87
2019-02-28T01:56:23.010Z,7.88
2019-02-28T01:57:22.841Z,7.95
2019-02-28T01:58:23.010Z,7.94
2019-02-28T01:59:23.768Z,7.97
2019-02-28T02:00:23.832Z,7.98
2019-02-28T02:01:22.909Z,8.00
2019-02-28T02:02:22.936Z,7.97
2019-02-28T02:04:45.791Z,7.88
2019-02-28T02:05:43.882Z,7.93
2019-02-28T02:07:48.808Z,7.97
2019-02-28T02:08:51.198Z,7.72
2019-02-28T02:09:48.658Z,7.76
2019-02-28T02:10:48.704Z,7.83
2019-02-28T02:12:48.444Z,7.79
2019-02-28T02:13:48.655Z,7.82
2019-02-28T02:14:49.132Z,7.76
2019-02-28T02:15:53.345Z,7.91
2019-02-28T02:16:55.287Z,7.77
2019-02-28T02:17:48.452Z,7.90
2019-02-28T02:19:03.228Z,7.97
2019-02-28T02:19:49.383Z,7.95
2019-02-28T02:20:48.404Z,7.73
2019-02-28T02:21:48.322Z,7.73
2019-02-28T02:22:49.360Z,7.77
2019-02-28T02:23:49.589Z,7.63
2019-02-28T02:24:50.187Z,7.60
2019-02-28T02:25:51.191Z,7.67
2019-02-28T02:26:51.498Z,7.58
2019-02-28T02:27:52.797Z,7.61
2019-02-28T02:28:48.343Z,7.50
2019-02-28T02:29:50.345Z,7.48
2019-02-28T02:30:51.018Z,7.58
2019-02-28T02:31:48.332Z,7.43
2019-02-28T02:32:48.162Z,7.42
2019-02-28T02:33:52.341Z,7.45
2019-02-28T02:34:48.198Z,7.43
2019-02-28T02:35:48.144Z,7.43
2019-02-28T02:36:53.066Z,7.45
2019-02-28T02:37:48.308Z,7.43
2019-02-28T02:38:48.196Z,7.43
2019-02-28T02:39:50.171Z,7.33
2019-02-28T02:40:48.324Z,7.25
2019-02-28T02:41:48.085Z,7.28
2019-02-28T02:42:49.699Z,7.20
2019-02-28T02:43:47.940Z,7.28
2019-02-28T02:44:48.048Z,7.29
2019-02-28T02:45:52.727Z,7.28
2019-02-28T02:46:47.983Z,7.33
2019-02-28T02:47:49.747Z,7.32
2019-02-28T02:48:47.927Z,7.21
2019-02-28T02:49:56.195Z,7.18
2019-02-28T02:50:47.948Z,7.31
2019-02-28T02:51:50.508Z,7.18
2019-02-28T02:52:48.064Z,7.25
2019-02-28T02:53:48.639Z,7.28
2019-02-28T02:54:52.119Z,7.20
2019-02-28T02:55:47.898Z,7.15
2019-02-28T02:56:48.964Z,7.20
2019-02-28T02:58:47.856Z,7.23
2019-02-28T02:59:50.648Z,7.28
2019-02-28T03:00:51.309Z,7.32
2019-02-28T03:01:47.940Z,7.25
2019-02-28T03:02:47.720Z,7.28
2019-02-28T03:04:47.751Z,7.25
2019-02-28T03:05:48.294Z,7.21
2019-02-28T03:06:47.779Z,7.24
2019-02-28T03:07:47.672Z,7.24
2019-02-28T03:08:47.659Z,7.25
2019-02-28T03:09:47.657Z,7.23
2019-02-28T03:10:51.863Z,7.20
2019-02-28T03:11:47.583Z,7.25
2019-02-28T03:12:47.485Z,7.21
2019-02-28T03:13:47.475Z,7.31
2019-02-28T03:14:48.714Z,7.24
2019-02-28T03:15:48.179Z,7.14
2019-02-28T03:19:19.516Z,7.28
2019-02-28T03:20:20.968Z,7.29
2019-02-28T03:21:19.973Z,7.23
2019-02-28T03:22:19.149Z,7.20
2019-02-28T03:23:19.075Z,7.21
2019-02-28T03:24:20.925Z,7.23
2019-02-28T03:25:19.283Z,7.28
2019-02-28T03:26:19.051Z,7.28
2019-02-28T03:27:25.933Z,7.23
2019-02-28T03:28:20.865Z,7.18
2019-02-28T03:29:18.851Z,7.18
2019-02-28T03:30:28.415Z,7.17
2019-02-28T03:31:18.979Z,7.13
2019-02-28T03:32:18.972Z,7.21
2019-02-28T03:33:27.439Z,7.07
2019-02-28T03:35:18.946Z,7.18
2019-02-28T03:36:18.937Z,7.05
2019-02-28T03:37:19.516Z,7.14
2019-02-28T03:38:18.962Z,7.07
2019-02-28T03:39:24.068Z,7.07
2019-02-28T03:40:19.589Z,7.23
2019-02-28T03:41:20.547Z,7.13
2019-02-28T03:42:20.265Z,7.03
2019-02-28T03:43:18.782Z,7.06
2019-02-28T03:44:21.590Z,7.14
2019-02-28T03:45:18.801Z,7.07
2019-02-28T03:46:19.570Z,7.13
2019-02-28T03:47:29.515Z,7.05
2019-02-28T03:48:18.738Z,7.07
2019-02-28T03:49:18.833Z,7.11
2019-02-28T03:50:21.989Z,7.05
2019-02-28T03:51:20.427Z,7.05
2019-02-28T03:52:18.676Z,7.06
2019-02-28T03:53:20.009Z,7.10
2019-02-28T03:54:19.457Z,7.05
2019-02-28T03:55:18.438Z,7.10
2019-02-28T03:56:23.438Z,7.05
2019-02-28T03:57:18.503Z,7.07
2019-02-28T03:58:42.936Z,7.05
2019-02-28T03:59:18.845Z,7.07
2019-02-28T04:00:20.023Z,7.11
2019-02-28T04:01:18.576Z,7.13
2019-02-28T04:02:22.228Z,7.11
2019-02-28T04:03:18.466Z,7.13
2019-02-28T04:04:22.882Z,7.05
2019-02-28T04:05:18.304Z,7.02
2019-02-28T04:06:18.455Z,7.14
2019-02-28T04:07:24.922Z,7.05
2019-02-28T04:08:18.437Z,7.07
2019-02-28T04:09:18.566Z,7.03
2019-02-28T04:10:22.063Z,7.03
2019-02-28T04:11:18.311Z,7.06
2019-02-28T04:12:18.371Z,7.06
2019-02-28T04:13:19.224Z,7.07
2019-02-28T04:14:18.387Z,7.07
2019-02-28T04:15:18.640Z,7.11
2019-02-28T04:16:20.004Z,7.10
2019-02-28T04:17:30.088Z,7.11
2019-02-28T04:18:18.244Z,7.10
2019-02-28T04:19:21.702Z,7.05
2019-02-28T04:20:21.061Z,7.05
2019-02-28T04:21:18.989Z,7.05
2019-02-28T04:22:19.583Z,7.10
2019-02-28T04:23:18.057Z,7.18
2019-02-28T04:24:18.975Z,7.10
2019-02-28T04:25:24.124Z,7.13
2019-02-28T04:27:18.026Z,6.89
2019-02-28T04:28:19.064Z,7.02
2019-02-28T04:29:17.995Z,6.89
2019-02-28T04:30:18.465Z,6.95
2019-02-28T04:31:20.087Z,6.97
2019-02-28T04:32:17.790Z,6.96
2019-02-28T04:33:17.794Z,6.99
2019-02-28T04:34:17.984Z,6.93
2019-02-28T04:35:24.358Z,6.99
2019-02-28T04:36:17.897Z,6.96
2019-02-28T04:37:19.443Z,6.88
2019-02-28T04:38:20.507Z,6.85
2019-02-28T04:39:22.705Z,6.82
2019-02-28T04:41:17.691Z,6.89
2019-02-28T04:42:17.758Z,6.87
2019-02-28T04:43:17.642Z,6.87
2019-02-28T04:44:20.489Z,6.88
2019-02-28T04:45:17.649Z,6.85
2019-02-28T04:46:17.675Z,6.89
2019-02-28T04:47:18.402Z,6.84
2019-02-28T04:48:19.574Z,6.82
2019-02-28T04:49:21.785Z,6.79
2019-02-28T04:50:17.535Z,6.84
2019-02-28T04:52:17.618Z,6.74
2019-02-28T04:53:18.956Z,6.75
2019-02-28T04:54:17.647Z,6.74
2019-02-28T04:55:30.467Z,6.75
2019-02-28T04:56:17.509Z,6.79
2019-02-28T04:57:20.658Z,6.74
2019-02-28T04:58:17.499Z,6.70
2019-02-28T04:59:17.502Z,6.69
2019-02-28T05:00:19.031Z,6.79
2019-02-28T05:01:17.361Z,6.67
2019-02-28T05:02:19.937Z,6.75
2019-02-28T05:03:17.246Z,6.74
2019-02-28T05:04:17.503Z,6.78
2019-02-28T05:05:17.247Z,6.67
2019-02-28T05:06:18.309Z,6.67
2019-02-28T05:07:20.080Z,6.72
2019-02-28T05:08:21.943Z,6.64
2019-02-28T05:09:17.164Z,6.70
2019-02-28T05:10:19.304Z,6.67
2019-02-28T05:11:17.180Z,6.56
2019-02-28T05:12:17.318Z,6.57
2019-02-28T05:13:17.403Z,6.57
2019-02-28T05:14:17.193Z,6.56
2019-02-28T05:15:17.148Z,6.67
2019-02-28T05:16:17.137Z,6.57
2019-02-28T05:17:22.288Z,6.62
2019-02-28T05:18:20.078Z,6.54
2019-02-28T05:19:18.919Z,6.60
2019-02-28T05:20:17.104Z,6.57
2019-02-28T05:21:19.507Z,6.56
2019-02-28T05:22:17.013Z,6.59
2019-02-28T05:23:18.680Z,6.48
2019-02-28T05:24:17.636Z,6.48
2019-02-28T05:26:17.519Z,6.42
2019-02-28T05:27:24.433Z,6.44
2019-02-28T05:28:19.454Z,6.44
2019-02-28T05:29:17.598Z,6.44
2019-02-28T05:30:19.288Z,6.44
2019-02-28T05:31:16.836Z,6.41
2019-02-28T05:32:16.786Z,6.48
2019-02-28T05:33:17.816Z,6.42
2019-02-28T05:34:17.424Z,6.48
2019-02-28T05:35:16.975Z,6.41
2019-02-28T05:36:16.665Z,6.42
2019-02-28T05:37:17.340Z,6.42
2019-02-28T05:39:16.664Z,6.52
2019-02-28T05:40:17.695Z,6.54
2019-02-28T05:41:16.851Z,6.60
2019-02-28T05:42:16.672Z,6.67
2019-02-28T05:43:16.609Z,6.67
2019-02-28T05:44:16.582Z,6.74
2019-02-28T05:45:17.514Z,6.64
2019-02-28T05:46:17.281Z,6.78
2019-02-28T05:47:16.880Z,6.78
2019-02-28T05:48:17.473Z,6.92
2019-02-28T05:49:17.461Z,6.89
2019-02-28T05:52:51.703Z,6.97
2019-02-28T05:53:48.538Z,7.03
2019-02-28T05:57:04.655Z,7.15
2019-02-28T05:58:01.132Z,7.07
2019-02-28T06:00:03.551Z,7.18
2019-02-28T06:01:01.099Z,7.18
2019-02-28T06:02:58.045Z,7.11
2019-02-28T06:04:03.306Z,7.14
2019-02-28T06:06:51.490Z,7.17
2019-02-28T06:08:43.137Z,7.17
2019-02-28T06:09:45.565Z,7.24
2019-02-28T06:11:45.983Z,7.28
2019-02-28T06:12:43.947Z,7.31
2019-02-28T06:14:39.303Z,7.32
2019-02-28T06:15:39.435Z,7.29
2019-02-28T06:17:54.574Z,7.45
2019-02-28T06:18:33.888Z,7.53
2019-02-28T06:20:28.052Z,7.57
2019-02-28T06:21:27.427Z,7.61
2019-02-28T06:22:30.549Z,7.57
2019-02-28T06:23:27.293Z,7.56
2019-02-28T06:24:27.427Z,7.56
2019-02-28T06:25:29.017Z,7.58
2019-02-28T06:26:27.895Z,7.56
2019-02-28T06:27:29.023Z,7.57
2019-02-28T06:28:27.628Z,7.63
2019-02-28T06:29:27.467Z,7.63
2019-02-28T06:30:42.727Z,7.70
2019-02-28T06:31:27.319Z,7.72
2019-02-28T06:32:28.828Z,7.85
2019-02-28T06:33:27.152Z,7.76
2019-02-28T06:34:27.270Z,7.88
2019-02-28T06:35:31.859Z,8.00
2019-02-28T06:36:29.198Z,8.09
2019-02-28T06:37:28.034Z,8.20
2019-02-28T06:38:27.091Z,8.48
2019-02-28T06:39:27.915Z,8.82
2019-02-28T06:40:27.174Z,9.08
2019-02-28T06:41:28.074Z,9.31
2019-02-28T06:42:27.087Z,9.39
2019-02-28T06:43:27.879Z,9.44
2019-02-28T06:44:27.675Z,9.44
2019-02-28T06:45:28.957Z,9.44
2019-02-28T06:46:27.071Z,9.48
2019-02-28T06:47:27.179Z,9.28
2019-02-28T06:48:27.053Z,9.13
2019-02-28T06:49:27.070Z,9.11
2019-02-28T06:50:27.322Z,9.02
2019-02-28T06:51:27.037Z,9.03
2019-02-28T06:52:26.899Z,8.92
2019-02-28T06:53:26.685Z,8.97
2019-02-28T06:54:27.032Z,8.82
2019-02-28T06:55:28.060Z,8.81
2019-02-28T06:56:26.775Z,8.82
2019-02-28T06:57:27.496Z,8.84
2019-02-28T06:58:26.779Z,8.88
2019-02-28T06:59:26.638Z,9.00
2019-02-28T07:00:26.747Z,9.04
2019-02-28T07:02:28.469Z,9.68
2019-02-28T07:03:27.840Z,9.91
2019-02-28T07:04:27.479Z,9.94
2019-02-28T07:05:26.500Z,9.91
2019-02-28T07:07:31.308Z,9.92
2019-02-28T07:08:28.953Z,10.28
2019-02-28T07:09:26.732Z,10.75
2019-02-28T07:10:26.611Z,11.36
2019-02-28T07:11:26.416Z,12.18
2019-02-28T07:12:29.697Z,12.90
2019-02-28T07:13:26.490Z,13.81
2019-02-28T07:14:26.584Z,14.48
2019-02-28T07:15:26.511Z,15.17
2019-02-28T07:16:34.568Z,15.72
2019-02-28T07:17:26.512Z,16.28
2019-02-28T07:18:27.326Z,16.99
2019-02-28T07:19:27.567Z,17.52
2019-02-28T07:20:28.912Z,17.92
2019-02-28T07:21:30.156Z,18.43
2019-02-28T07:22:26.553Z,18.77
2019-02-28T07:23:26.691Z,19.33
2019-02-28T07:24:26.664Z,19.76
2019-02-28T07:26:28.169Z,20.69
2019-02-28T07:27:29.727Z,21.05
2019-02-28T07:28:27.194Z,21.27
2019-02-28T07:29:29.081Z,21.72
2019-02-28T07:30:26.400Z,22.00
2019-02-28T07:31:30.103Z,22.26
2019-02-28T07:32:27.031Z,22.51
2019-02-28T07:33:26.475Z,22.76
2019-02-28T07:34:28.022Z,23.15
2019-02-28T07:35:26.154Z,23.36
2019-02-28T07:36:29.332Z,23.66
2019-02-28T07:37:40.893Z,24.06
2019-02-28T07:38:28.861Z,24.39
2019-02-28T07:39:26.480Z,24.76
2019-02-28T07:40:27.117Z,24.95
2019-02-28T07:41:29.087Z,25.25
2019-02-28T07:43:02.038Z,25.53
2019-02-28T07:43:29.127Z,25.84
2019-02-28T07:44:29.007Z,26.07
2019-02-28T07:45:29.667Z,26.33
2019-02-28T07:46:52.238Z,26.66
2019-02-28T07:47:41.091Z,26.90
2019-02-28T07:50:03.956Z,27.49
2019-02-28T07:51:01.196Z,27.86
2019-02-28T07:51:59.245Z,28.22
2019-02-28T07:52:58.585Z,28.51
2019-02-28T07:53:58.560Z,28.86
2019-02-28T07:55:06.166Z,29.14
2019-02-28T07:56:13.214Z,29.59
2019-02-28T07:56:58.393Z,29.73
2019-02-28T07:59:05.302Z,30.40
2019-02-28T08:00:05.566Z,30.62
2019-02-28T08:01:01.368Z,30.92
2019-02-28T08:01:59.952Z,31.18
2019-02-28T08:03:00.260Z,31.62
2019-02-28T08:06:39.204Z,32.60
2019-02-28T08:07:34.177Z,32.60
2019-02-28T08:09:53.490Z,32.71
2019-02-28T08:10:47.936Z,32.85
2019-02-28T08:11:37.506Z,33.07
2019-02-28T08:12:37.654Z,33.24
2019-02-28T08:13:58.688Z,33.62
2019-02-28T08:14:57.393Z,33.86
2019-02-28T08:15:53.313Z,34.21
2019-02-28T08:16:39.675Z,34.70
2019-02-28T08:17:57.474Z,35.12
2019-02-28T08:18:58.390Z,35.58
2019-02-28T08:19:36.637Z,35.88
2019-02-28T08:22:11.091Z,35.98
2019-02-28T08:22:57.781Z,35.22
2019-02-28T08:23:39.224Z,33.04
2019-02-28T08:24:37.248Z,31.17
2019-02-28T08:25:58.675Z,29.39
2019-02-28T08:26:43.744Z,27.68
2019-02-28T08:28:38.401Z,24.91
2019-02-28T08:29:38.086Z,23.55
2019-02-28T08:30:39.574Z,22.57
2019-02-28T08:32:06.579Z,21.60
2019-02-28T08:34:59.370Z,19.63
2019-02-28T08:36:11.624Z,19.08
2019-02-28T08:38:34.273Z,17.78
2019-02-28T08:39:19.211Z,17.30
2019-02-28T08:40:19.076Z,16.87
2019-02-28T08:41:18.864Z,16.35
2019-02-28T08:42:18.954Z,16.01
2019-02-28T08:43:26.853Z,15.61
2019-02-28T08:44:22.697Z,15.28
2019-02-28T08:45:25.858Z,15.00
2019-02-28T08:46:21.005Z,14.66
2019-02-28T08:47:21.113Z,14.40
2019-02-28T08:48:18.426Z,14.30
2019-02-28T08:49:21.965Z,14.23
2019-02-28T08:51:20.016Z,14.07
2019-02-28T08:52:18.519Z,13.89
2019-02-28T08:53:22.083Z,13.77
2019-02-28T08:54:27.236Z,13.71
2019-02-28T08:55:27.917Z,13.54
2019-02-28T08:56:28.451Z,13.33
2019-02-28T08:57:25.715Z,13.16
2019-02-28T08:58:18.289Z,13.09
2019-02-28T08:59:22.566Z,12.86
2019-02-28T09:00:18.283Z,12.68
2019-02-28T09:01:18.678Z,12.62
2019-02-28T09:02:19.058Z,12.50
2019-02-28T09:03:45.937Z,12.54
2019-02-28T09:04:18.112Z,12.45
2019-02-28T09:05:18.521Z,12.39
2019-02-28T09:06:18.447Z,12.27
2019-02-28T09:07:18.162Z,12.20
2019-02-28T09:08:18.177Z,12.15
2019-02-28T09:09:18.288Z,12.00
2019-02-28T09:10:20.145Z,11.86
2019-02-28T09:11:20.584Z,11.73
2019-02-28T09:12:20.247Z,11.59
2019-02-28T09:13:19.075Z,11.45
2019-02-28T09:14:19.066Z,11.43
2019-02-28T09:15:18.918Z,11.47
2019-02-28T09:16:18.639Z,11.43
2019-02-28T09:17:24.597Z,11.37
2019-02-28T09:18:39.183Z,11.18
2019-02-28T09:19:17.870Z,11.29
2019-02-28T09:21:19.080Z,11.32
2019-02-28T09:23:19.257Z,11.55
2019-02-28T09:24:18.157Z,11.65
2019-02-28T09:25:21.553Z,12.02
2019-02-28T09:27:40.212Z,12.62
2019-02-28T09:28:20.796Z,13.09
2019-02-28T09:29:21.077Z,13.22
2019-02-28T09:30:20.743Z,13.57
2019-02-28T09:31:21.276Z,13.90
2019-02-28T09:32:18.833Z,14.12
2019-02-28T09:33:41.122Z,14.26
2019-02-28T09:34:17.771Z,14.51
2019-02-28T09:35:17.763Z,14.58
2019-02-28T09:36:21.738Z,14.50
2019-02-28T09:37:29.466Z,14.26
2019-02-28T09:38:18.049Z,14.17
2019-02-28T09:39:38.710Z,14.00
2019-02-28T09:40:18.928Z,13.86
2019-02-28T09:41:40.180Z,13.72
2019-02-28T09:42:24.738Z,13.42
2019-02-28T09:43:19.760Z,13.23
2019-02-28T09:44:42.815Z,13.03
2019-02-28T09:45:33.720Z,12.90
2019-02-28T09:46:18.800Z,12.72
2019-02-28T09:47:17.600Z,12.46
2019-02-28T09:49:17.632Z,12.06
2019-02-28T09:50:42.090Z,11.75
2019-02-28T09:51:17.556Z,11.59
2019-02-28T09:52:24.433Z,11.47
2019-02-28T09:53:19.139Z,11.19
2019-02-28T09:54:21.450Z,11.04
2019-02-28T09:55:17.500Z,10.93
2019-02-28T09:56:44.468Z,10.82
2019-02-28T09:57:18.906Z,10.68
2019-02-28T09:58:19.167Z,10.68
2019-02-28T09:59:19.067Z,10.44
2019-02-28T10:00:18.020Z,10.48
2019-02-28T10:01:21.206Z,10.37
2019-02-28T10:02:43.371Z,10.34
2019-02-28T10:03:19.529Z,10.40
2019-02-28T10:04:30.482Z,10.40
2019-02-28T10:05:29.334Z,10.44
2019-02-28T10:06:17.474Z,10.54
2019-02-28T10:07:23.341Z,10.46
2019-02-28T10:09:17.764Z,10.59
2019-02-28T10:10:20.881Z,10.71
2019-02-28T10:11:17.811Z,10.72
2019-02-28T10:12:19.915Z,10.86
2019-02-28T10:14:53.423Z,11.18
2019-02-28T10:15:51.883Z,11.37
2019-02-28T10:16:52.706Z,11.52
2019-02-28T10:17:52.820Z,11.66
2019-02-28T10:18:51.898Z,11.78
2019-02-28T10:19:52.354Z,11.94
2019-02-28T10:20:53.441Z,12.15
2019-02-28T10:21:52.354Z,12.58
2019-02-28T10:22:52.234Z,13.25
2019-02-28T10:23:53.413Z,13.83
2019-02-28T10:24:54.392Z,13.90
2019-02-28T10:25:51.919Z,13.78
2019-02-28T10:26:52.869Z,13.60
2019-02-28T10:27:54.402Z,13.57
2019-02-28T10:28:56.572Z,13.59
2019-02-28T10:29:52.679Z,13.57
2019-02-28T10:30:59.050Z,13.57
2019-02-28T10:31:51.618Z,13.63
2019-02-28T10:32:52.768Z,13.90
2019-02-28T10:33:53.170Z,14.00
2019-02-28T10:34:51.495Z,14.00
2019-02-28T10:35:55.466Z,13.92
2019-02-28T10:36:53.473Z,13.97
2019-02-28T10:37:57.440Z,13.81
2019-02-28T10:38:51.894Z,13.65
2019-02-28T10:39:51.526Z,13.44
2019-02-28T10:40:54.119Z,13.22
2019-02-28T10:41:51.980Z,13.22
2019-02-28T10:42:52.457Z,12.90
2019-02-28T10:43:55.934Z,12.70
2019-02-28T10:44:54.662Z,12.54
2019-02-28T10:45:51.361Z,12.39
2019-02-28T10:46:53.798Z,12.20
2019-02-28T10:47:51.524Z,12.02
2019-02-28T10:48:52.334Z,12.02
2019-02-28T10:49:51.245Z,11.90
2019-02-28T10:50:51.431Z,11.75
2019-02-28T10:51:51.538Z,11.75
2019-02-28T10:52:52.893Z,11.77
2019-02-28T10:53:52.459Z,11.78
2019-02-28T10:54:53.857Z,11.78
2019-02-28T10:55:57.562Z,11.83
2019-02-28T10:56:51.591Z,11.73
2019-02-28T10:57:51.251Z,11.68
2019-02-28T10:58:53.838Z,11.70
2019-02-28T10:59:51.286Z,11.66
2019-02-28T11:00:51.326Z,11.60
2019-02-28T11:01:51.188Z,11.51
2019-02-28T11:02:56.502Z,11.54
2019-02-28T11:03:51.285Z,11.52
2019-02-28T11:06:51.251Z,11.43
2019-02-28T11:07:51.076Z,11.47
2019-02-28T11:08:52.020Z,11.43
2019-02-28T11:09:55.643Z,11.48
2019-02-28T11:10:51.030Z,11.55
2019-02-28T11:11:53.084Z,11.48
2019-02-28T11:13:52.890Z,11.70
2019-02-28T11:14:52.948Z,11.84
2019-02-28T11:15:50.912Z,11.88
2019-02-28T11:16:51.003Z,11.94
2019-02-28T11:17:52.907Z,11.91
2019-02-28T11:18:50.880Z,11.87
2019-02-28T11:19:52.017Z,11.94
2019-02-28T11:21:50.872Z,11.77
2019-02-28T11:22:52.958Z,11.73
2019-02-28T11:23:50.817Z,11.70
2019-02-28T11:24:51.080Z,11.66
2019-02-28T11:25:53.052Z,11.48
2019-02-28T11:26:52.566Z,11.52
2019-02-28T11:27:53.691Z,11.43
2019-02-28T11:28:53.594Z,11.40
2019-02-28T11:29:50.864Z,11.50
2019-02-28T11:30:50.720Z,11.51
2019-02-28T11:31:54.329Z,11.52
2019-02-28T11:32:50.788Z,11.60
2019-02-28T11:33:50.833Z,11.72
2019-02-28T11:34:52.463Z,11.75
2019-02-28T11:35:57.662Z,11.90
2019-02-28T11:36:52.435Z,12.00
2019-02-28T11:37:50.603Z,12.20
2019-02-28T11:38:52.518Z,12.25
2019-02-28T11:39:50.754Z,12.27
2019-02-28T11:40:57.064Z,12.27
2019-02-28T11:41:52.530Z,12.47
2019-02-28T11:42:50.807Z,12.43
2019-02-28T11:43:50.593Z,12.49
2019-02-28T11:45:51.565Z,12.40
2019-02-28T11:46:52.474Z,12.35
2019-02-28T11:47:51.583Z,12.27
2019-02-28T11:48:50.976Z,12.32
2019-02-28T11:49:51.526Z,12.42
2019-02-28T11:50:50.559Z,12.46
2019-02-28T11:51:53.080Z,12.55
2019-02-28T11:52:50.634Z,12.50
2019-02-28T11:53:51.579Z,12.62
2019-02-28T11:54:50.468Z,12.61
2019-02-28T11:55:53.372Z,12.61
2019-02-28T11:56:50.287Z,12.75
2019-02-28T11:57:50.336Z,12.68
2019-02-28T11:58:51.698Z,12.75
2019-02-28T11:59:50.299Z,12.58
2019-02-28T12:00:50.293Z,12.54
2019-02-28T12:01:50.481Z,12.31
2019-02-28T12:02:53.229Z,12.21
2019-02-28T12:03:50.492Z,12.09
2019-02-28T12:04:50.489Z,11.97
2019-02-28T12:05:51.265Z,11.95
2019-02-28T12:06:50.382Z,11.88
2019-02-28T12:07:50.337Z,11.75
2019-02-28T12:08:50.420Z,11.63
2019-02-28T12:09:51.438Z,11.43
2019-02-28T12:10:51.643Z,11.37
2019-02-28T12:11:50.153Z,11.29
2019-02-28T12:12:50.209Z,11.11
2019-02-28T12:13:51.684Z,11.12
2019-02-28T12:14:51.824Z,11.07
2019-02-28T12:15:51.406Z,11.08
2019-02-28T12:16:53.571Z,10.97
2019-02-28T12:17:50.264Z,10.90
2019-02-28T12:18:50.129Z,10.93
2019-02-28T12:19:51.390Z,10.82
2019-02-28T12:20:52.295Z,10.81
2019-02-28T12:21:52.117Z,10.76
2019-02-28T12:22:50.187Z,10.68
2019-02-28T12:23:51.119Z,10.71
2019-02-28T12:24:51.152Z,10.71
2019-02-28T12:25:50.498Z,10.72
2019-02-28T12:26:52.709Z,10.78
2019-02-28T12:27:52.128Z,10.71
2019-02-28T12:28:58.178Z,10.68
2019-02-28T12:29:51.184Z,10.78
2019-02-28T12:30:50.084Z,10.90
2019-02-28T12:31:50.108Z,10.93
2019-02-28T12:32:52.587Z,10.94
2019-02-28T12:33:53.327Z,10.94
2019-02-28T12:34:49.873Z,10.99
2019-02-28T12:35:49.863Z,10.97
2019-02-28T12:36:52.390Z,11.07
2019-02-28T12:37:49.875Z,11.26
2019-02-28T12:38:49.871Z,11.32
2019-02-28T12:39:49.850Z,11.44
2019-02-28T12:40:49.931Z,11.57
2019-02-28T12:41:51.538Z,11.62
2019-02-28T12:42:51.044Z,11.62
2019-02-28T12:43:49.686Z,11.68
2019-02-28T12:44:52.485Z,11.80
2019-02-28T12:45:49.776Z,11.86
2019-02-28T12:46:49.711Z,11.91
2019-02-28T12:47:52.307Z,11.90
2019-02-28T12:48:50.938Z,11.91
2019-02-28T12:49:49.970Z,11.80
2019-02-28T12:50:49.638Z,11.73
2019-02-28T12:51:50.991Z,11.62
2019-02-28T12:52:50.078Z,11.48
2019-02-28T12:53:49.538Z,11.44
2019-02-28T12:54:51.381Z,11.36
2019-02-28T12:55:50.722Z,11.35
2019-02-28T12:56:51.375Z,11.22
2019-02-28T12:57:51.546Z,11.08
2019-02-28T12:58:49.653Z,11.15
2019-02-28T12:59:49.511Z,10.94
2019-02-28T13:00:49.534Z,10.94
2019-02-28T13:01:51.368Z,10.84
2019-02-28T13:02:49.469Z,10.87
2019-02-28T13:03:54.614Z,10.82
2019-02-28T13:04:49.436Z,10.72
2019-02-28T13:05:49.597Z,10.68
2019-02-28T13:06:49.320Z,10.60
2019-02-28T13:07:49.284Z,10.54
2019-02-28T13:08:49.657Z,10.54
2019-02-28T13:09:51.440Z,10.38
2019-02-28T13:10:49.387Z,10.46
2019-02-28T13:11:49.272Z,10.37
2019-02-28T13:12:50.245Z,10.34
2019-02-28T13:13:49.305Z,10.37
2019-02-28T13:14:50.778Z,10.25
2019-02-28T13:15:50.746Z,10.19
2019-02-28T13:16:49.299Z,10.16
2019-02-28T13:17:50.316Z,10.09
2019-02-28T13:18:49.313Z,10.12
2019-02-28T13:19:53.288Z,10.13
2019-02-28T13:20:49.097Z,9.97
2019-02-28T13:21:49.238Z,9.99
2019-02-28T13:22:50.892Z,9.80
2019-02-28T13:23:49.221Z,9.86
2019-02-28T13:24:49.225Z,9.86
2019-02-28T13:25:49.060Z,9.83
2019-02-28T13:26:50.050Z,9.80
2019-02-28T13:27:50.919Z,9.76
2019-02-28T13:28:49.157Z,9.69
2019-02-28T13:29:49.043Z,9.66
2019-02-28T13:30:51.459Z,9.62
2019-02-28T13:31:49.080Z,9.51
2019-02-28T13:32:48.996Z,9.64
2019-02-28T13:33:52.680Z,9.54
2019-02-28T13:34:49.016Z,9.58
2019-02-28T13:35:50.856Z,9.44
2019-02-28T13:36:49.089Z,9.41
2019-02-28T13:37:50.849Z,9.43
2019-02-28T13:38:49.508Z,9.41
2019-02-28T13:39:51.085Z,9.41
2019-02-28T13:40:48.939Z,9.40
2019-02-28T13:41:48.976Z,9.31
2019-02-28T13:43:48.873Z,9.26
2019-02-28T13:44:48.800Z,9.22
2019-02-28T13:45:50.614Z,9.22
2019-02-28T13:46:50.659Z,9.18
2019-02-28T13:47:50.477Z,9.06
2019-02-28T13:48:50.518Z,9.04
2019-02-28T13:49:49.816Z,9.14
2019-02-28T13:50:48.731Z,8.97
2019-02-28T13:51:48.745Z,9.04
2019-02-28T13:52:52.270Z,9.02
2019-02-28T13:53:50.367Z,9.08
2019-02-28T13:54:49.751Z,8.94
2019-02-28T13:55:52.577Z,8.97
2019-02-28T13:56:50.351Z,8.97
2019-02-28T13:57:48.575Z,8.95
2019-02-28T13:58:53.649Z,8.89
2019-02-28T13:59:48.789Z,8.99
2019-02-28T14:00:48.669Z,8.85
2019-02-28T14:01:51.991Z,8.88
2019-02-28T14:02:49.638Z,8.87
2019-02-28T14:03:48.606Z,8.82
2019-02-28T14:04:48.509Z,8.85
2019-02-28T14:05:50.405Z,8.66
2019-02-28T14:06:52.502Z,8.71
2019-02-28T14:07:50.596Z,8.66
2019-02-28T14:08:50.514Z,8.64
2019-02-28T14:09:56.801Z,8.63
2019-02-28T14:10:48.369Z,8.51